createdAt,value
2018-08-09T00:00:58.791Z,25.30
2018-08-09T00:03:27.272Z,25.20
2018-08-09T00:05:55.793Z,25.10
2018-08-09T00:08:24.285Z,25.30
2018-08-09T00:10:52.837Z,25.20
2018-08-09T00:13:21.330Z,25.10
2018-08-09T00:15:49.899Z,24.90
2018-08-09T00:18:18.427Z,24.90
2018-08-09T00:20:46.893Z,24.90
2018-08-09T00:23:15.311Z,24.90
2018-08-09T00:25:43.747Z,25.00
2018-08-09T00:28:12.227Z,24.90
2018-08-09T00:30:40.641Z,24.60
2018-08-09T00:33:09.089Z,24.60
2018-08-09T00:35:37.541Z,24.90
2018-08-09T00:38:05.979Z,24.70
2018-08-09T00:40:34.437Z,24.80
2018-08-09T00:43:02.921Z,24.70
2018-08-09T00:45:31.399Z,24.70
2018-08-09T00:47:59.847Z,24.80
2018-08-09T00:50:28.305Z,24.60
2018-08-09T00:52:56.773Z,24.70
2018-08-09T00:55:25.244Z,24.70
2018-08-09T00:57:53.683Z,24.60
2018-08-09T01:00:22.133Z,24.50
2018-08-09T01:02:50.557Z,24.50
2018-08-09T01:05:19.039Z,24.50
2018-08-09T01:07:47.514Z,24.30
2018-08-09T01:10:15.928Z,24.40
2018-08-09T01:12:44.394Z,24.50
2018-08-09T01:15:12.896Z,24.30
2018-08-09T01:17:41.384Z,24.10
2018-08-09T01:20:09.905Z,24.30
2018-08-09T01:22:38.382Z,24.10
2018-08-09T01:25:06.900Z,24.20
2018-08-09T01:27:35.358Z,24.40
2018-08-09T01:30:04.425Z,24.20
2018-08-09T01:32:32.894Z,24.10
2018-08-09T01:35:01.406Z,24.00
2018-08-09T01:37:29.901Z,24.10
2018-08-09T01:39:58.450Z,24.00
2018-08-09T01:42:37.883Z,24.10
2018-08-09T01:45:06.456Z,24.00
2018-08-09T01:47:34.908Z,24.00
2018-08-09T01:50:03.571Z,23.90
2018-08-09T01:52:32.076Z,24.00
2018-08-09T01:55:00.665Z,24.10
2018-08-09T01:57:29.146Z,23.80
2018-08-09T01:59:58.092Z,23.70
2018-08-09T02:02:27.041Z,23.80
2018-08-09T02:04:56.245Z,23.80
2018-08-09T02:07:24.737Z,23.70
2018-08-09T02:09:53.233Z,23.50
2018-08-09T02:12:21.715Z,23.80
2018-08-09T02:14:50.416Z,23.90
2018-08-09T02:17:18.984Z,23.70
2018-08-09T02:19:47.445Z,23.70
2018-08-09T02:22:15.982Z,23.70
2018-08-09T02:24:44.828Z,23.50
2018-08-09T02:27:13.732Z,23.60
2018-08-09T02:29:44.174Z,23.50
2018-08-09T02:32:12.697Z,23.40
2018-08-09T02:34:41.267Z,23.30
2018-08-09T02:37:10.108Z,23.40
2018-08-09T02:39:38.968Z,23.50
2018-08-09T02:42:07.723Z,23.60
2018-08-09T02:44:36.277Z,23.30
2018-08-09T02:47:04.776Z,23.30
2018-08-09T02:49:33.220Z,23.30
2018-08-09T02:52:01.691Z,23.20
2018-08-09T02:54:30.189Z,23.20
2018-08-09T02:56:58.661Z,23.20
2018-08-09T02:59:27.237Z,23.00
2018-08-09T03:01:55.763Z,23.10
2018-08-09T03:04:24.438Z,22.90
2018-08-09T03:06:52.964Z,23.20
2018-08-09T03:09:21.410Z,23.00
2018-08-09T03:11:49.960Z,23.10
2018-08-09T03:14:18.533Z,23.20
2018-08-09T03:16:47.109Z,23.10
2018-08-09T03:19:16.128Z,23.10
2018-08-09T03:21:45.128Z,23.10
2018-08-09T03:24:23.437Z,23.00
2018-08-09T03:26:52.238Z,22.90
2018-08-09T03:29:20.738Z,23.00
2018-08-09T03:31:49.246Z,23.00
2018-08-09T03:34:17.691Z,23.20
2018-08-09T03:36:46.175Z,23.00
2018-08-09T03:39:14.655Z,22.80
2018-08-09T03:41:43.479Z,22.90
2018-08-09T03:44:11.990Z,22.90
2018-08-09T03:46:40.598Z,22.90
2018-08-09T03:49:09.107Z,23.10
2018-08-09T03:51:37.608Z,23.00
2018-08-09T03:54:06.180Z,23.00
2018-08-09T03:56:34.776Z,22.90
2018-08-09T03:59:03.384Z,23.10
2018-08-09T04:01:31.848Z,22.90
2018-08-09T04:04:01.261Z,22.90
2018-08-09T04:06:30.972Z,22.80
2018-08-09T04:08:59.464Z,22.90
2018-08-09T04:11:28.000Z,22.80
2018-08-09T04:13:56.504Z,22.80
2018-08-09T04:16:24.987Z,22.90
2018-08-09T04:18:53.808Z,23.10
2018-08-09T04:21:22.257Z,22.90
2018-08-09T04:23:50.747Z,22.80
2018-08-09T04:26:19.224Z,23.10
2018-08-09T04:28:47.716Z,23.30
2018-08-09T04:31:16.206Z,23.10
2018-08-09T04:33:44.682Z,23.20
2018-08-09T04:36:19.280Z,23.20
2018-08-09T04:38:48.789Z,23.20
2018-08-09T04:41:17.296Z,23.30
2018-08-09T04:43:45.751Z,23.40
2018-08-09T04:46:14.309Z,23.60
2018-08-09T04:48:42.759Z,23.70
2018-08-09T04:51:11.309Z,23.90
2018-08-09T04:53:39.794Z,23.80
2018-08-09T04:56:08.277Z,24.00
2018-08-09T04:58:36.789Z,24.30
2018-08-09T05:01:05.260Z,24.40
2018-08-09T05:03:34.449Z,24.30
2018-08-09T05:06:03.449Z,24.60
2018-08-09T05:08:32.074Z,25.00
2018-08-09T05:11:00.554Z,25.40
2018-08-09T05:13:29.042Z,25.10
2018-08-09T05:15:57.541Z,25.20
2018-08-09T05:18:26.008Z,25.40
2018-08-09T05:20:54.530Z,25.30
2018-08-09T05:23:23.458Z,25.50
2018-08-09T05:25:51.980Z,25.50
2018-08-09T05:28:21.489Z,25.00
2018-08-09T05:30:49.996Z,25.40
2018-08-09T05:33:18.628Z,25.80
2018-08-09T05:35:47.174Z,25.50
2018-08-09T05:38:16.858Z,25.80
2018-08-09T05:40:45.637Z,25.90
2018-08-09T05:43:14.276Z,25.80
2018-08-09T05:45:43.416Z,25.90
2018-08-09T05:48:12.908Z,25.90
2018-08-09T05:50:41.775Z,26.30
2018-08-09T05:53:10.262Z,26.80
2018-08-09T05:55:38.743Z,27.00
2018-08-09T05:58:07.318Z,26.40
2018-08-09T06:00:35.909Z,26.40
2018-08-09T06:03:04.390Z,26.60
2018-08-09T06:05:32.862Z,26.40
2018-08-09T06:08:01.688Z,27.10
2018-08-09T06:10:30.480Z,26.40
2018-08-09T06:12:58.970Z,26.80
2018-08-09T06:15:27.513Z,26.80
2018-08-09T06:17:58.522Z,27.00
2018-08-09T06:20:26.963Z,27.70
2018-08-09T06:22:55.622Z,28.10
2018-08-09T06:25:24.412Z,27.80
2018-08-09T06:27:53.335Z,27.90
2018-08-09T06:30:21.806Z,27.40
2018-08-09T06:32:50.322Z,27.60
2018-08-09T06:35:18.832Z,27.50
2018-08-09T06:37:47.334Z,27.50
2018-08-09T06:40:15.880Z,28.00
2018-08-09T06:42:44.950Z,28.20
2018-08-09T06:45:13.458Z,28.30
2018-08-09T06:47:41.962Z,27.80
2018-08-09T06:50:11.549Z,27.80
2018-08-09T06:52:40.283Z,27.10
2018-08-09T06:55:08.801Z,27.60
2018-08-09T06:57:37.316Z,28.30
2018-08-09T07:00:09.794Z,29.30
2018-08-09T07:19:43.693Z,29.90
2018-08-09T07:22:12.205Z,29.80
2018-08-09T07:24:40.653Z,30.00
2018-08-09T07:27:09.095Z,30.50
2018-08-09T07:29:37.551Z,30.60
2018-08-09T07:32:06.192Z,29.50
2018-08-09T07:34:34.719Z,28.60
2018-08-09T07:37:03.297Z,29.70
2018-08-09T07:39:32.088Z,30.30
2018-08-09T07:42:00.535Z,30.90
2018-08-09T07:44:29.229Z,31.00
2018-08-09T07:46:57.750Z,30.10
2018-08-09T07:49:26.263Z,30.90
2018-08-09T07:51:54.809Z,31.60
2018-08-09T07:54:23.357Z,30.00
2018-08-09T07:56:51.800Z,29.70
2018-08-09T07:59:20.268Z,29.40
2018-08-09T08:01:48.742Z,31.10
2018-08-09T08:04:17.262Z,30.50
2018-08-09T08:06:45.741Z,31.60
2018-08-09T08:09:14.200Z,30.90
2018-08-09T08:11:42.657Z,31.80
2018-08-09T08:14:11.174Z,31.00
2018-08-09T08:16:39.696Z,32.60
2018-08-09T08:19:08.361Z,32.70
2018-08-09T08:21:36.876Z,32.90
2018-08-09T08:24:05.504Z,32.60
2018-08-09T08:26:34.203Z,32.40
2018-08-09T08:29:02.664Z,31.90
2018-08-09T08:31:31.203Z,33.20
2018-08-09T08:33:59.687Z,33.00
2018-08-09T08:36:29.474Z,34.00
2018-08-09T08:38:58.169Z,33.60
2018-08-09T08:41:27.327Z,33.40
2018-08-09T08:43:55.830Z,34.40
2018-08-09T08:46:24.803Z,34.10
2018-08-09T08:48:53.565Z,34.20
2018-08-09T08:51:22.086Z,34.00
2018-08-09T08:53:50.615Z,32.60
2018-08-09T08:56:19.413Z,34.40
2018-08-09T08:58:48.024Z,33.30
2018-08-09T09:01:16.575Z,32.20
2018-08-09T09:03:45.144Z,31.90
2018-08-09T09:06:13.657Z,34.40
2018-08-09T09:08:42.529Z,33.30
2018-08-09T09:11:11.395Z,35.00
2018-08-09T09:13:40.103Z,34.20
2018-08-09T09:16:08.575Z,34.00
2018-08-09T09:18:37.149Z,34.20
2018-08-09T09:21:05.857Z,34.60
2018-08-09T09:23:35.124Z,34.90
2018-08-09T09:26:04.496Z,34.10
2018-08-09T09:28:33.130Z,34.10
2018-08-09T09:31:01.652Z,33.40
2018-08-09T09:33:30.288Z,33.50
2018-08-09T09:35:58.786Z,34.40
2018-08-09T09:38:27.424Z,35.80
2018-08-09T09:40:57.262Z,34.80
2018-08-09T09:43:25.913Z,34.80
2018-08-09T09:45:54.904Z,35.20
2018-08-09T09:48:23.770Z,35.10
2018-08-09T09:50:53.028Z,34.90
2018-08-09T09:53:21.548Z,35.40
2018-08-09T09:55:50.258Z,35.30
2018-08-09T09:58:18.862Z,34.90
2018-08-09T10:00:53.144Z,35.60
2018-08-09T10:03:22.332Z,36.70
2018-08-09T10:05:51.017Z,35.90
2018-08-09T10:08:19.816Z,35.30
2018-08-09T10:10:49.336Z,35.70
2018-08-09T10:13:17.766Z,36.40
2018-08-09T10:15:46.203Z,35.60
2018-08-09T10:18:14.668Z,35.80
2018-08-09T10:20:43.144Z,34.80
2018-08-09T10:23:11.609Z,35.50
2018-08-09T10:25:40.110Z,35.90
2018-08-09T10:28:08.680Z,35.90
2018-08-09T10:30:37.599Z,35.90
2018-08-09T10:33:06.146Z,36.40
2018-08-09T10:35:34.757Z,35.90
2018-08-09T10:38:03.246Z,35.70
2018-08-09T10:40:31.697Z,34.20
2018-08-09T10:43:01.342Z,35.80
2018-08-09T10:45:29.852Z,35.80
2018-08-09T10:47:58.321Z,35.70
2018-08-09T10:50:26.935Z,36.40
2018-08-09T10:52:55.635Z,36.30
2018-08-09T10:55:24.055Z,35.70
2018-08-09T10:57:52.561Z,35.50
2018-08-09T11:00:21.359Z,36.30
2018-08-09T11:02:49.975Z,36.30
2018-08-09T11:05:18.416Z,36.10
2018-08-09T11:07:48.330Z,36.10
2018-08-09T11:10:17.286Z,35.20
2018-08-09T11:12:47.983Z,36.30
2018-08-09T11:15:16.527Z,35.90
2018-08-09T11:17:45.139Z,35.80
2018-08-09T11:20:13.674Z,37.10
2018-08-09T11:22:42.940Z,36.70
2018-08-09T11:25:11.428Z,36.60
2018-08-09T11:27:39.993Z,36.40
2018-08-09T11:30:08.899Z,36.40
2018-08-09T11:32:37.279Z,36.40
2018-08-09T11:35:06.118Z,36.30
2018-08-09T11:37:34.782Z,36.50
2018-08-09T11:40:03.302Z,36.50
2018-08-09T11:42:31.874Z,35.90
2018-08-09T11:45:00.287Z,35.90
2018-08-09T11:47:28.763Z,35.60
2018-08-09T11:49:57.282Z,36.10
2018-08-09T11:52:25.735Z,35.80
2018-08-09T11:54:54.156Z,36.80
2018-08-09T11:57:23.054Z,36.40
2018-08-09T11:59:52.700Z,36.00
2018-08-09T12:02:21.317Z,37.00
2018-08-09T12:04:50.056Z,36.60
2018-08-09T12:07:18.564Z,36.60
2018-08-09T12:09:46.975Z,36.40
2018-08-09T12:12:15.499Z,35.70
2018-08-09T12:14:44.040Z,35.40
2018-08-09T12:17:13.076Z,36.10
2018-08-09T12:19:41.648Z,35.20
2018-08-09T12:22:10.229Z,34.40
2018-08-09T12:24:44.503Z,34.40
2018-08-09T12:27:14.374Z,35.40
2018-08-09T12:29:44.496Z,35.10
2018-08-09T12:32:14.331Z,34.60
2018-08-09T12:34:43.102Z,34.50
2018-08-09T12:37:11.808Z,34.10
2018-08-09T12:39:40.746Z,33.90
2018-08-09T12:42:09.956Z,34.80
2018-08-09T12:44:38.586Z,35.60
2018-08-09T12:47:07.472Z,36.00
2018-08-09T12:49:36.012Z,35.10
2018-08-09T12:52:04.686Z,35.30
2018-08-09T12:54:33.289Z,35.10
2018-08-09T12:57:01.948Z,34.70
2018-08-09T12:59:31.098Z,34.60
2018-08-09T13:01:59.658Z,34.60
2018-08-09T13:04:28.683Z,35.20
2018-08-09T13:07:06.458Z,35.90
2018-08-09T13:09:38.202Z,35.30
2018-08-09T13:12:06.742Z,35.10
2018-08-09T13:14:35.363Z,35.50
2018-08-09T13:17:03.864Z,35.70
2018-08-09T13:19:32.412Z,35.70
2018-08-09T13:22:01.009Z,36.00
2018-08-09T13:24:29.508Z,35.50
2018-08-09T13:26:57.997Z,35.20
2018-08-09T13:29:26.418Z,35.50
2018-08-09T13:31:55.038Z,35.50
2018-08-09T13:34:23.620Z,36.10
2018-08-09T13:36:52.312Z,36.60
2018-08-09T13:39:20.916Z,36.90
2018-08-09T13:41:49.445Z,36.10
2018-08-09T13:44:18.175Z,36.20
2018-08-09T13:46:46.745Z,35.80
2018-08-09T13:49:15.203Z,35.60
2018-08-09T13:51:43.769Z,35.40
2018-08-09T13:54:12.325Z,35.40
2018-08-09T13:56:40.885Z,35.40
2018-08-09T13:59:09.492Z,36.00
2018-08-09T14:01:38.069Z,36.00
2018-08-09T14:04:06.743Z,36.30
2018-08-09T14:06:35.151Z,36.60
2018-08-09T14:09:06.472Z,36.10
2018-08-09T14:11:34.887Z,36.00
2018-08-09T14:14:03.453Z,35.70
2018-08-09T14:16:31.871Z,36.00
2018-08-09T14:19:00.284Z,35.90
2018-08-09T14:21:28.718Z,35.80
2018-08-09T14:23:57.155Z,35.30
2018-08-09T14:26:25.549Z,35.00
2018-08-09T14:28:53.957Z,34.90
2018-08-09T14:31:22.344Z,34.90
2018-08-09T14:33:50.735Z,35.40
2018-08-09T14:36:19.141Z,35.40
2018-08-09T14:38:47.575Z,35.30
2018-08-09T14:41:15.941Z,35.30
2018-08-09T14:43:44.339Z,35.10
2018-08-09T14:46:12.765Z,35.50
2018-08-09T14:48:41.292Z,35.70
2018-08-09T14:51:09.693Z,35.80
2018-08-09T14:53:38.176Z,35.90
2018-08-09T14:56:06.618Z,35.90
2018-08-09T14:58:35.110Z,35.90
2018-08-09T15:01:03.591Z,35.70
2018-08-09T15:03:32.104Z,35.80
2018-08-09T15:06:00.561Z,35.90
2018-08-09T15:08:28.945Z,36.00
2018-08-09T15:10:57.335Z,35.80
2018-08-09T15:13:25.743Z,35.70
2018-08-09T15:15:54.143Z,35.60
2018-08-09T15:18:22.575Z,35.40
2018-08-09T15:20:50.990Z,35.60
2018-08-09T15:23:19.391Z,35.50
2018-08-09T15:25:47.807Z,35.50
2018-08-09T15:28:16.271Z,35.80
2018-08-09T15:30:44.723Z,35.70
2018-08-09T15:33:13.141Z,35.70
2018-08-09T15:35:41.509Z,35.50
2018-08-09T15:38:10.013Z,35.70
2018-08-09T15:40:38.339Z,35.60
2018-08-09T15:43:06.754Z,35.30
2018-08-09T15:45:35.100Z,35.10
2018-08-09T15:48:03.566Z,35.20
2018-08-09T15:50:31.926Z,35.30
2018-08-09T15:53:00.440Z,35.30
2018-08-09T15:55:28.845Z,35.20
2018-08-09T15:57:57.242Z,35.30
2018-08-09T16:00:25.637Z,35.30
2018-08-09T16:02:54.066Z,35.10
2018-08-09T16:05:22.545Z,34.90
2018-08-09T16:07:51.074Z,34.80
2018-08-09T16:10:19.600Z,35.10
2018-08-09T16:12:48.472Z,34.90
2018-08-09T16:15:18.350Z,34.90
2018-08-09T16:17:47.731Z,34.80
2018-08-09T16:20:16.410Z,34.70
2018-08-09T16:22:45.561Z,34.70
2018-08-09T16:25:15.321Z,34.80
2018-08-09T16:27:43.913Z,35.00
2018-08-09T16:30:18.859Z,35.00
2018-08-09T16:32:47.440Z,34.90
2018-08-09T16:35:15.970Z,35.00
2018-08-09T16:37:45.196Z,34.80
2018-08-09T16:40:16.600Z,34.50
2018-08-09T16:42:45.161Z,34.40
2018-08-09T16:45:15.207Z,34.50
2018-08-09T16:47:43.773Z,34.40
2018-08-09T16:50:14.683Z,34.40
2018-08-09T16:52:43.218Z,34.30
2018-08-09T16:55:13.286Z,34.30
2018-08-09T16:57:42.044Z,34.40
2018-08-09T17:00:12.626Z,34.30
2018-08-09T17:02:41.115Z,34.40
2018-08-09T17:05:12.126Z,34.20
2018-08-09T17:07:41.004Z,34.10
2018-08-09T17:10:10.391Z,34.10
2018-08-09T17:12:39.613Z,34.10
2018-08-09T17:15:13.817Z,34.00
2018-08-09T17:17:42.337Z,33.10
2018-08-09T17:20:16.816Z,31.90
2018-08-09T17:22:45.239Z,30.20
2018-08-09T17:25:14.284Z,27.80
2018-08-09T17:27:44.072Z,25.90
2018-08-09T17:30:14.018Z,26.20
2018-08-09T17:32:42.500Z,26.80
2018-08-09T17:35:12.086Z,26.60
2018-08-09T17:37:40.616Z,26.70
2018-08-09T17:40:13.265Z,26.60
2018-08-09T17:42:41.840Z,27.30
2018-08-09T17:45:11.235Z,27.00
2018-08-09T17:47:39.770Z,27.50
2018-08-09T17:50:08.774Z,27.60
2018-08-09T17:52:37.651Z,27.60
2018-08-09T17:55:08.479Z,27.10
2018-08-09T17:57:36.969Z,27.10
2018-08-09T18:00:08.062Z,26.60
2018-08-09T18:02:36.714Z,26.20
2018-08-09T18:05:06.670Z,26.00
2018-08-09T18:07:35.412Z,25.60
2018-08-09T18:10:04.998Z,25.40
2018-08-09T18:12:33.495Z,25.10
2018-08-09T18:15:01.936Z,24.70
2018-08-09T18:17:30.438Z,23.80
2018-08-09T18:22:21.658Z,22.80
2018-08-09T18:24:50.078Z,22.20
2018-08-09T18:27:18.487Z,22.30
2018-08-09T18:29:46.985Z,22.50
2018-08-09T18:32:15.411Z,22.50
2018-08-09T18:34:44.254Z,22.50
2018-08-09T18:37:12.814Z,22.60
2018-08-09T18:39:42.363Z,22.70
2018-08-09T18:42:11.697Z,22.80
2018-08-09T18:44:40.508Z,22.70
2018-08-09T18:47:09.591Z,22.70
2018-08-09T18:49:38.427Z,22.90
2018-08-09T18:52:07.142Z,22.90
2018-08-09T18:54:35.837Z,22.70
2018-08-09T18:57:08.695Z,22.90
2018-08-09T18:59:37.282Z,23.00
2018-08-09T19:02:05.943Z,22.90
2018-08-09T19:04:35.034Z,22.90
2018-08-09T19:07:04.071Z,22.80
2018-08-09T19:09:33.013Z,22.90
2018-08-09T19:12:02.056Z,22.90
2018-08-09T19:14:32.365Z,23.00
2018-08-09T19:17:01.133Z,22.80
2018-08-09T19:19:30.170Z,23.00
2018-08-09T19:21:58.857Z,23.00
2018-08-09T19:24:27.737Z,23.10
2018-08-09T19:26:57.037Z,23.00
2018-08-09T19:29:25.681Z,23.00
2018-08-09T19:31:54.283Z,23.00
2018-08-09T19:34:22.905Z,23.00
2018-08-09T19:36:51.547Z,23.10
2018-08-09T19:39:20.290Z,23.10
2018-08-09T19:41:49.012Z,23.20
2018-08-09T19:44:17.617Z,23.20
2018-08-09T19:46:46.737Z,23.10
2018-08-09T19:49:15.447Z,23.20
2018-08-09T19:51:44.363Z,23.20
2018-08-09T19:54:12.955Z,23.40
2018-08-09T19:56:41.621Z,23.50
2018-08-09T19:59:10.200Z,23.50
2018-08-09T20:01:38.789Z,23.50
2018-08-09T20:04:07.425Z,23.30
2018-08-09T20:06:35.994Z,23.50
2018-08-09T20:09:06.453Z,23.40
2018-08-09T20:11:35.053Z,23.20
2018-08-09T20:14:03.905Z,23.20
2018-08-09T20:16:32.613Z,23.10
2018-08-09T20:19:01.295Z,23.20
2018-08-09T20:21:29.972Z,23.30
2018-08-09T20:23:58.844Z,23.00
2018-08-09T20:26:27.507Z,23.00
2018-08-09T20:28:56.662Z,22.70
2018-08-09T20:31:25.482Z,22.90
2018-08-09T20:33:54.566Z,22.80
2018-08-09T20:36:23.881Z,22.70
2018-08-09T20:38:52.687Z,22.90
2018-08-09T20:41:21.730Z,23.00
2018-08-09T20:43:50.356Z,22.90
2018-08-09T20:46:18.962Z,23.00
2018-08-09T20:48:47.844Z,23.10
2018-08-09T20:51:16.404Z,23.10
2018-08-09T20:53:46.517Z,22.90
2018-08-09T20:56:15.132Z,23.00
2018-08-09T20:58:43.868Z,23.10
2018-08-09T21:01:12.606Z,22.80
2018-08-09T21:03:41.720Z,22.90
2018-08-09T21:06:10.388Z,23.00
2018-08-09T21:08:39.949Z,22.80
2018-08-09T21:11:09.294Z,22.80
2018-08-09T21:13:38.316Z,22.80
2018-08-09T21:16:07.018Z,22.70
2018-08-09T21:18:36.094Z,22.70
2018-08-09T21:21:04.796Z,22.70
2018-08-09T21:23:33.474Z,22.70
2018-08-09T21:26:02.021Z,22.60
2018-08-09T21:28:31.411Z,22.60
2018-08-09T21:30:59.950Z,22.60
2018-08-09T21:33:28.526Z,22.70
2018-08-09T21:35:57.399Z,22.70
2018-08-09T21:38:25.988Z,22.80
2018-08-09T21:40:54.572Z,22.80
2018-08-09T21:43:23.165Z,22.70
2018-08-09T21:45:51.688Z,22.60
2018-08-09T21:48:20.272Z,22.60
2018-08-09T21:50:48.865Z,22.60
2018-08-09T21:53:17.469Z,22.60
2018-08-09T21:55:45.992Z,22.60
2018-08-09T21:58:15.417Z,22.60
2018-08-09T22:00:55.378Z,22.70
2018-08-09T22:03:25.729Z,22.70
2018-08-09T22:05:59.461Z,22.60
2018-08-09T22:08:33.241Z,22.60
2018-08-09T22:11:07.098Z,22.60
2018-08-09T22:13:40.841Z,22.60
2018-08-09T22:16:14.701Z,22.60
2018-08-09T22:18:48.590Z,22.60
2018-08-09T22:21:22.272Z,22.70
2018-08-09T22:23:50.837Z,22.80
2018-08-09T22:26:19.377Z,22.70
2018-08-09T22:28:48.138Z,22.70
2018-08-09T22:31:16.909Z,22.70
2018-08-09T22:33:45.639Z,22.50
2018-08-09T22:36:14.198Z,22.60
2018-08-09T22:38:42.719Z,22.60
2018-08-09T22:41:11.245Z,22.70
2018-08-09T22:43:39.736Z,22.60
2018-08-09T22:46:08.197Z,22.70
2018-08-09T22:48:36.785Z,22.60
2018-08-09T22:51:05.323Z,22.50
2018-08-09T22:53:33.834Z,22.40
2018-08-09T22:56:02.398Z,22.50
2018-08-09T22:58:30.884Z,22.50
2018-08-09T23:00:59.352Z,22.50
2018-08-09T23:03:27.839Z,22.50
2018-08-09T23:05:56.325Z,22.40
2018-08-09T23:08:24.806Z,22.50
2018-08-09T23:10:53.278Z,22.50
2018-08-09T23:13:21.822Z,22.60
2018-08-09T23:15:50.394Z,22.50
2018-08-09T23:18:18.846Z,22.50
2018-08-09T23:20:47.404Z,22.50
2018-08-09T23:23:15.892Z,22.50
2018-08-09T23:25:44.448Z,22.60
2018-08-09T23:28:12.930Z,22.60
2018-08-09T23:30:41.504Z,22.60
2018-08-09T23:33:10.028Z,22.60
2018-08-09T23:35:38.542Z,22.50
2018-08-09T23:38:07.074Z,22.60
2018-08-09T23:40:35.509Z,22.50
2018-08-09T23:43:04.001Z,22.60
2018-08-09T23:45:32.472Z,22.50
2018-08-09T23:48:01.005Z,22.40
2018-08-09T23:50:29.443Z,22.60
2018-08-09T23:52:57.929Z,22.60
2018-08-09T23:55:26.415Z,22.50
2018-08-09T23:57:54.908Z,22.40
